Soller, Spain
Current Conditions -  °F | °C
As of 9:30 AM on Friday 28 Nov 2014 (Local Time) from LEPA Reporting Station
Few Clouds Few Clouds  
Wind Chill: 64°   Ceiling: Unl
Heat Index: 64°   Visibility: 6mi
Dew Point: 59°   Wind: 8mph
Humidity: 83%   Direction: 130°SE
Pressure: 29.41"   Gusts: NA
Location:  39.77°N, 2.72°E
Report Text: LEPA 280830Z 13007KT 100V160 9999 FEW020 18/15 Q0996 NOSIG
Loading
Personal Weather Stations






























Interactive Weather Map New forecast layout! Learn more

10-Day Weather Forecast

Advertisements
Track Severe Weather on mobile